createdAt,value
2023-02-14T00:01:28.867Z,23.50
2023-02-14T00:04:00.593Z,22.47
2023-02-14T00:06:29.891Z,22.83
2023-02-14T00:08:57.903Z,23.93
2023-02-14T00:11:25.995Z,23.17
2023-02-14T00:14:07.868Z,22.30
2023-02-14T00:16:35.808Z,22.90
2023-02-14T00:19:05.203Z,24.47
2023-02-14T00:21:35.881Z,23.53
2023-02-14T00:24:03.830Z,22.40
2023-02-14T00:26:31.849Z,23.60
2023-02-14T00:28:59.825Z,23.50
2023-02-14T00:31:27.953Z,23.00
2023-02-14T00:33:56.015Z,22.27
2023-02-14T00:36:25.386Z,23.00
2023-02-14T00:38:53.296Z,22.57
2023-02-14T00:41:21.220Z,22.53
2023-02-14T00:43:50.181Z,23.47
2023-02-14T00:46:19.364Z,22.90
2023-02-14T00:48:47.764Z,23.50
2023-02-14T00:51:18.345Z,23.80
2023-02-14T00:53:49.544Z,21.87
2023-02-14T00:56:19.160Z,21.53
2023-02-14T00:58:47.589Z,21.43
2023-02-14T01:01:17.146Z,22.30
2023-02-14T01:03:46.995Z,21.87
2023-02-14T01:06:14.992Z,21.67
2023-02-14T01:08:45.377Z,21.33
2023-02-14T01:11:16.349Z,22.60
2023-02-14T01:13:45.046Z,22.87
2023-02-14T01:16:15.048Z,22.70
2023-02-14T01:18:43.911Z,22.50
2023-02-14T01:21:18.492Z,23.20
2023-02-14T01:23:47.945Z,22.53
2023-02-14T01:26:17.941Z,23.93
2023-02-14T01:28:46.476Z,23.00
2023-02-14T01:31:16.386Z,23.13
2023-02-14T01:33:46.194Z,25.20
2023-02-14T01:36:18.492Z,23.33
2023-02-14T01:38:46.493Z,24.30
2023-02-14T01:41:15.208Z,22.67
2023-02-14T01:43:57.749Z,23.43
2023-02-14T01:46:27.224Z,23.20
2023-02-14T01:48:59.962Z,22.17
2023-02-14T01:51:28.217Z,22.63
2023-02-14T01:53:56.446Z,21.70
2023-02-14T01:56:30.185Z,22.30
2023-02-14T01:59:03.441Z,22.53
2023-02-14T02:01:32.128Z,21.63
2023-02-14T02:04:05.100Z,21.47
2023-02-14T02:06:36.510Z,21.03
2023-02-14T02:09:12.025Z,21.50
2023-02-14T02:11:41.252Z,20.73
2023-02-14T02:14:15.938Z,19.83
2023-02-14T02:17:00.159Z,20.17
2023-02-14T02:20:10.612Z,20.17
2023-02-14T02:23:06.132Z,20.17
2023-02-14T02:26:08.371Z,18.93
2023-02-14T02:29:05.384Z,19.67
2023-02-14T02:32:00.825Z,19.47
2023-02-14T02:35:05.505Z,17.50
2023-02-14T02:37:41.119Z,17.83
2023-02-14T02:40:24.550Z,18.37
2023-02-14T02:43:04.547Z,17.93
2023-02-14T02:46:01.241Z,16.70
2023-02-14T02:48:38.476Z,15.50
2023-02-14T02:51:31.371Z,16.10
2023-02-14T02:54:07.098Z,15.77
2023-02-14T02:56:45.469Z,15.23
2023-02-14T02:59:19.219Z,15.43
2023-02-14T03:01:52.924Z,14.53
2023-02-14T03:04:40.217Z,13.60
2023-02-14T03:07:23.489Z,13.50
2023-02-14T03:09:53.769Z,13.43
2023-02-14T03:12:41.157Z,13.00
2023-02-14T03:15:20.653Z,12.27
2023-02-14T03:17:56.476Z,12.23
2023-02-14T03:20:31.487Z,12.80
2023-02-14T03:23:09.090Z,11.57
2023-02-14T03:25:47.707Z,12.10
2023-02-14T03:28:20.165Z,12.10
2023-02-14T03:30:59.702Z,12.67
2023-02-14T03:33:32.807Z,12.43
2023-02-14T03:36:05.254Z,11.37
2023-02-14T03:38:39.974Z,10.90
2023-02-14T03:41:13.552Z,11.70
2023-02-14T03:43:46.060Z,11.53
2023-02-14T03:46:18.537Z,11.13
2023-02-14T03:48:47.994Z,11.30
2023-02-14T03:51:17.036Z,11.70
2023-02-14T03:53:49.029Z,11.40
2023-02-14T03:56:23.283Z,10.60
2023-02-14T03:58:56.832Z,10.83
2023-02-14T04:01:25.892Z,10.33
2023-02-14T04:03:56.890Z,10.20
2023-02-14T04:06:24.905Z,9.23
2023-02-14T04:08:54.294Z,10.30
2023-02-14T04:11:24.468Z,11.63
2023-02-14T04:13:52.663Z,10.17
2023-02-14T04:16:20.658Z,10.10
2023-02-14T04:19:05.923Z,9.90
2023-02-14T04:21:33.879Z,9.67
2023-02-14T04:24:03.187Z,9.63
2023-02-14T04:26:31.075Z,8.33
2023-02-14T04:28:58.925Z,9.30
2023-02-14T04:31:26.903Z,9.53
2023-02-14T04:33:54.959Z,8.73
2023-02-14T04:36:22.885Z,8.87
2023-02-14T04:38:50.681Z,9.27
2023-02-14T04:41:20.001Z,9.60
2023-02-14T04:43:47.921Z,10.37
2023-02-14T04:46:15.942Z,9.70
2023-02-14T04:48:43.861Z,10.10
2023-02-14T04:51:11.768Z,11.00
2023-02-14T04:53:40.364Z,10.57
2023-02-14T04:56:08.842Z,10.67
2023-02-14T04:58:38.165Z,12.03
2023-02-14T05:01:06.239Z,11.27
2023-02-14T05:03:34.192Z,10.80
2023-02-14T05:06:02.049Z,12.00
2023-02-14T05:08:29.988Z,12.60
2023-02-14T05:10:58.104Z,11.70
2023-02-14T05:13:26.305Z,12.27
2023-02-14T05:15:55.647Z,11.17
2023-02-14T05:18:23.571Z,12.10
2023-02-14T05:20:51.742Z,12.10
2023-02-14T05:23:19.731Z,11.90
2023-02-14T05:25:49.490Z,12.57
2023-02-14T05:28:17.829Z,11.73
2023-02-14T05:30:46.272Z,12.13
2023-02-14T05:33:15.617Z,12.00
2023-02-14T05:35:43.548Z,11.90
2023-02-14T05:38:13.046Z,11.87
2023-02-14T05:40:41.363Z,10.73
2023-02-14T05:43:09.457Z,11.17
2023-02-14T05:45:37.798Z,12.10
2023-02-14T05:48:06.120Z,11.13
2023-02-14T05:50:35.428Z,11.10
2023-02-14T05:53:04.612Z,10.23
2023-02-14T05:55:32.524Z,10.57
2023-02-14T05:58:00.422Z,10.93
2023-02-14T06:00:28.862Z,11.03
2023-02-14T06:02:56.889Z,10.93
2023-02-14T06:05:24.832Z,10.47
2023-02-14T06:07:54.452Z,10.70
2023-02-14T06:10:23.707Z,11.37
2023-02-14T06:12:53.137Z,10.57
2023-02-14T06:15:22.309Z,11.37
2023-02-14T06:17:53.474Z,11.37
2023-02-14T06:20:22.139Z,10.93
2023-02-14T06:22:50.003Z,11.73
2023-02-14T06:25:20.249Z,11.00
2023-02-14T06:27:49.468Z,11.13
2023-02-14T06:30:19.069Z,11.60
2023-02-14T06:32:46.977Z,11.17
2023-02-14T06:35:15.912Z,11.87
2023-02-14T06:37:45.135Z,10.70
2023-02-14T06:40:14.324Z,11.03
2023-02-14T06:42:44.378Z,11.17
2023-02-14T06:45:12.730Z,10.20
2023-02-14T06:47:40.706Z,11.47
2023-02-14T06:50:11.687Z,11.50
2023-02-14T06:52:40.272Z,12.07
2023-02-14T06:55:08.969Z,10.87
2023-02-14T06:57:36.870Z,11.10
2023-02-14T07:00:07.636Z,10.27
2023-02-14T07:02:35.533Z,11.00
2023-02-14T07:05:03.407Z,11.03
2023-02-14T07:07:31.337Z,11.03
2023-02-14T07:09:59.298Z,11.43
2023-02-14T07:12:27.274Z,11.50
2023-02-14T07:14:55.144Z,11.53
2023-02-14T07:17:24.373Z,11.10
2023-02-14T07:19:52.326Z,10.93
2023-02-14T07:22:20.320Z,12.00
2023-02-14T07:24:48.289Z,11.17
2023-02-14T07:27:16.249Z,11.13
2023-02-14T07:29:44.297Z,10.90
2023-02-14T07:32:12.390Z,10.93
2023-02-14T07:34:41.786Z,11.33
2023-02-14T07:37:09.909Z,10.40
2023-02-14T07:39:37.765Z,11.00
2023-02-14T07:42:05.735Z,10.90
2023-02-14T07:44:33.645Z,10.90
2023-02-14T07:47:01.661Z,11.43
2023-02-14T07:49:29.724Z,11.80
2023-02-14T07:51:58.969Z,11.43
2023-02-14T07:54:26.883Z,12.17
2023-02-14T07:56:54.868Z,11.50
2023-02-14T07:59:25.650Z,11.97
2023-02-14T08:01:54.014Z,11.67
2023-02-14T08:04:25.954Z,12.53
2023-02-14T08:06:54.711Z,10.70
2023-02-14T08:09:27.572Z,12.80
2023-02-14T08:12:14.878Z,12.57
2023-02-14T08:14:43.981Z,11.83
2023-02-14T08:17:13.495Z,11.90
2023-02-14T08:19:42.216Z,10.93
2023-02-14T08:22:10.476Z,11.47
2023-02-14T08:24:39.986Z,11.87
2023-02-14T08:27:07.974Z,11.37
2023-02-14T08:29:36.042Z,12.10
2023-02-14T08:32:04.208Z,11.77
2023-02-14T08:34:32.147Z,12.50
2023-02-14T08:37:00.103Z,11.83
2023-02-14T08:39:27.998Z,13.87
2023-02-14T08:41:57.372Z,13.10
2023-02-14T08:44:25.598Z,13.13
2023-02-14T08:46:53.612Z,12.23
2023-02-14T08:49:21.554Z,12.03
2023-02-14T08:51:49.779Z,12.60
2023-02-14T08:54:17.794Z,13.70
2023-02-14T08:56:46.977Z,13.67
2023-02-14T08:59:16.590Z,14.13
2023-02-14T09:01:44.512Z,14.10
2023-02-14T09:04:12.505Z,14.50
2023-02-14T09:06:41.139Z,13.87
2023-02-14T09:09:09.165Z,13.27
2023-02-14T09:11:37.243Z,14.57
2023-02-14T09:14:05.401Z,14.63
2023-02-14T09:16:34.767Z,15.37
2023-02-14T09:19:02.846Z,15.47
2023-02-14T09:21:30.772Z,15.30
2023-02-14T09:23:58.804Z,15.57
2023-02-14T09:26:26.944Z,15.07
2023-02-14T09:28:54.832Z,15.70
2023-02-14T09:31:24.836Z,16.23
2023-02-14T09:34:11.674Z,16.93
2023-02-14T09:36:57.179Z,16.53
2023-02-14T09:39:25.366Z,16.73
2023-02-14T09:42:20.741Z,17.60
2023-02-14T09:44:53.449Z,17.33
2023-02-14T09:47:36.087Z,17.37
2023-02-14T09:50:08.055Z,17.73
2023-02-14T09:52:36.050Z,17.20
2023-02-14T09:55:04.747Z,18.43
2023-02-14T09:57:45.038Z,17.33
2023-02-14T10:00:21.045Z,17.57
2023-02-14T10:03:03.846Z,17.97
2023-02-14T10:05:38.532Z,19.03
2023-02-14T10:08:18.388Z,18.63
2023-02-14T10:10:48.732Z,19.67
2023-02-14T10:13:23.822Z,20.10
2023-02-14T10:16:00.632Z,20.37
2023-02-14T10:18:37.078Z,21.27
2023-02-14T10:21:08.606Z,21.17
2023-02-14T10:23:39.398Z,19.80
2023-02-14T10:26:10.488Z,21.37
2023-02-14T10:28:45.046Z,21.13
2023-02-14T10:31:21.164Z,20.70
2023-02-14T10:33:56.393Z,21.57
2023-02-14T10:36:46.108Z,19.93
2023-02-14T10:39:31.568Z,20.63
2023-02-14T10:42:04.954Z,22.03
2023-02-14T10:44:44.758Z,21.67
2023-02-14T10:47:26.605Z,21.90
2023-02-14T10:50:03.251Z,23.13
2023-02-14T10:52:39.187Z,22.70
2023-02-14T10:55:30.105Z,24.07
2023-02-14T10:58:00.099Z,22.43
2023-02-14T11:00:32.241Z,22.57
2023-02-14T11:03:03.963Z,23.13
2023-02-14T11:05:36.904Z,21.53
2023-02-14T11:08:16.204Z,22.00
2023-02-14T11:10:44.420Z,22.77
2023-02-14T11:13:31.652Z,23.23
2023-02-14T11:16:04.539Z,23.77
2023-02-14T11:18:35.745Z,23.03
2023-02-14T11:21:10.178Z,22.77
2023-02-14T11:23:42.181Z,23.30
2023-02-14T11:26:17.680Z,22.77
2023-02-14T11:28:53.712Z,22.83
2023-02-14T11:31:31.155Z,23.73
2023-02-14T11:34:02.400Z,22.47
2023-02-14T11:36:33.827Z,21.70
2023-02-14T11:39:19.263Z,22.20
2023-02-14T11:41:50.027Z,22.00
2023-02-14T11:44:22.697Z,22.10
2023-02-14T11:46:53.569Z,22.30
2023-02-14T11:49:31.322Z,22.23
2023-02-14T11:52:01.597Z,22.43
2023-02-14T11:54:37.022Z,21.80
2023-02-14T11:57:13.208Z,21.63
2023-02-14T11:59:44.959Z,21.47
2023-02-14T12:02:24.353Z,21.90
2023-02-14T12:04:56.225Z,22.27
2023-02-14T12:07:29.072Z,20.57
2023-02-14T12:10:24.129Z,22.30
2023-02-14T12:12:54.708Z,20.80
2023-02-14T12:15:36.671Z,19.70
2023-02-14T12:18:25.321Z,21.50
2023-02-14T12:20:59.503Z,21.80
2023-02-14T12:23:37.293Z,20.70
2023-02-14T12:26:15.132Z,20.37
2023-02-14T12:28:50.755Z,21.10
2023-02-14T12:31:20.033Z,21.90
2023-02-14T12:33:50.205Z,21.07
2023-02-14T12:36:34.765Z,20.57
2023-02-14T12:39:10.373Z,21.43
2023-02-14T12:41:49.423Z,21.23
2023-02-14T12:44:26.672Z,20.33
2023-02-14T12:47:13.175Z,20.60
2023-02-14T12:50:04.020Z,20.80
2023-02-14T12:52:55.426Z,21.03
2023-02-14T12:55:37.226Z,20.90
2023-02-14T12:58:23.748Z,20.67
2023-02-14T13:01:04.147Z,19.60
2023-02-14T13:03:47.624Z,20.47
2023-02-14T13:06:25.487Z,20.33
2023-02-14T13:09:15.828Z,20.43
2023-02-14T13:11:53.860Z,19.73
2023-02-14T13:14:36.744Z,19.33
2023-02-14T13:17:11.243Z,20.60
2023-02-14T13:19:47.390Z,19.53
2023-02-14T13:22:19.550Z,19.47
2023-02-14T13:24:50.257Z,19.50
2023-02-14T13:27:23.413Z,18.90
2023-02-14T13:29:57.344Z,19.07
2023-02-14T13:32:29.507Z,20.47
2023-02-14T13:34:58.032Z,18.73
2023-02-14T13:37:28.241Z,18.13
2023-02-14T13:39:59.155Z,18.73
2023-02-14T13:42:56.328Z,18.30
2023-02-14T13:45:54.186Z,18.40
2023-02-14T13:48:24.518Z,17.97
2023-02-14T13:50:55.566Z,19.63
2023-02-14T13:53:39.410Z,18.80
2023-02-14T13:56:34.827Z,19.07
2023-02-14T13:59:05.876Z,18.83
2023-02-14T14:01:38.984Z,18.73
2023-02-14T14:04:28.663Z,18.23
2023-02-14T14:07:32.304Z,17.80
2023-02-14T14:10:05.643Z,19.50
2023-02-14T14:12:41.168Z,19.00
2023-02-14T14:15:18.526Z,19.57
2023-02-14T14:17:51.091Z,18.53
2023-02-14T14:20:43.082Z,18.80
2023-02-14T14:23:31.908Z,18.13
2023-02-14T14:26:00.953Z,18.83
2023-02-14T14:28:32.395Z,18.63
2023-02-14T14:31:00.848Z,18.33
2023-02-14T14:33:32.220Z,18.40
2023-02-14T14:36:04.080Z,18.40
2023-02-14T14:38:35.591Z,18.83
2023-02-14T14:41:04.011Z,18.80
2023-02-14T14:43:35.040Z,18.63
2023-02-14T14:46:05.030Z,18.93
2023-02-14T14:48:40.136Z,18.53
2023-02-14T14:51:10.252Z,18.63
2023-02-14T14:53:44.316Z,19.30
2023-02-14T14:56:13.918Z,18.00
2023-02-14T14:58:43.065Z,18.40
2023-02-14T15:01:21.113Z,18.50
2023-02-14T15:03:50.421Z,18.13
2023-02-14T15:06:20.594Z,18.70
2023-02-14T15:08:49.587Z,18.43
2023-02-14T15:11:35.924Z,18.17
2023-02-14T15:14:06.470Z,17.60
2023-02-14T15:16:41.828Z,18.10
2023-02-14T15:19:13.723Z,18.27
2023-02-14T15:21:44.639Z,17.67
2023-02-14T15:24:15.993Z,18.40
2023-02-14T15:26:45.600Z,18.87
2023-02-14T15:29:23.060Z,17.77
2023-02-14T15:31:51.641Z,19.20
2023-02-14T15:34:28.109Z,17.00
2023-02-14T15:36:59.275Z,17.47
2023-02-14T15:39:33.579Z,17.53
2023-02-14T15:42:01.591Z,21.93
2023-02-14T15:44:29.696Z,22.97
2023-02-14T15:47:01.121Z,23.20
2023-02-14T15:49:34.359Z,24.83
2023-02-14T15:52:04.313Z,22.80
2023-02-14T15:54:37.231Z,23.77
2023-02-14T15:57:06.815Z,23.60
2023-02-14T15:59:36.645Z,23.73
2023-02-14T16:02:14.008Z,24.37
2023-02-14T16:04:43.319Z,23.90
2023-02-14T16:07:24.410Z,23.53
2023-02-14T16:10:13.497Z,25.57
2023-02-14T16:12:41.898Z,23.27
2023-02-14T16:15:21.290Z,24.53
2023-02-14T16:17:49.346Z,25.30
2023-02-14T16:20:31.042Z,24.70
2023-02-14T16:23:32.676Z,23.67
2023-02-14T16:26:00.749Z,24.50
2023-02-14T16:28:32.100Z,24.70
2023-02-14T16:31:02.794Z,24.60
2023-02-14T16:33:35.109Z,24.10
2023-02-14T16:36:09.265Z,23.90
2023-02-14T16:38:43.656Z,24.07
2023-02-14T16:41:17.956Z,23.63
2023-02-14T16:43:46.559Z,23.80
2023-02-14T16:46:15.735Z,23.90
2023-02-14T16:48:45.503Z,23.53
2023-02-14T16:51:16.178Z,24.67
2023-02-14T16:53:44.698Z,24.03
2023-02-14T16:56:17.962Z,24.50
2023-02-14T16:58:46.728Z,23.90
2023-02-14T17:01:14.903Z,29.70
2023-02-14T17:03:43.504Z,25.07
2023-02-14T17:06:14.072Z,24.97
2023-02-14T17:08:44.249Z,25.40
2023-02-14T17:11:12.331Z,23.57
2023-02-14T17:13:44.323Z,25.53
2023-02-14T17:16:15.514Z,25.27
2023-02-14T17:18:46.190Z,24.47
2023-02-14T17:21:14.837Z,25.47
2023-02-14T17:23:44.205Z,24.27
2023-02-14T17:26:12.302Z,26.13
2023-02-14T17:28:40.686Z,24.53
2023-02-14T17:31:08.896Z,23.80
2023-02-14T17:33:37.036Z,23.47
2023-02-14T17:36:06.656Z,25.40
2023-02-14T17:38:34.862Z,23.57
2023-02-14T17:41:14.319Z,24.17
2023-02-14T17:43:42.366Z,22.50
2023-02-14T17:46:10.883Z,23.93
2023-02-14T17:48:38.889Z,23.27
2023-02-14T17:51:07.957Z,23.97
2023-02-14T17:53:36.918Z,23.47
2023-02-14T17:56:07.093Z,24.07
2023-02-14T17:58:36.733Z,23.70
2023-02-14T18:01:05.533Z,23.67
2023-02-14T18:03:34.128Z,22.90
2023-02-14T18:06:03.096Z,23.13
2023-02-14T18:08:33.122Z,22.93
2023-02-14T18:11:01.316Z,23.43
2023-02-14T18:13:29.323Z,23.70
2023-02-14T18:16:02.164Z,23.90
2023-02-14T18:18:30.247Z,23.00
2023-02-14T18:21:00.234Z,23.53
2023-02-14T18:23:29.061Z,22.63
2023-02-14T18:25:59.041Z,23.77
2023-02-14T18:28:28.027Z,23.10
2023-02-14T18:30:57.733Z,22.67
2023-02-14T18:33:27.268Z,23.43
2023-02-14T18:35:55.199Z,24.43
2023-02-14T18:38:23.164Z,24.40
2023-02-14T18:40:51.092Z,23.53
2023-02-14T18:43:18.962Z,22.53
2023-02-14T18:45:47.108Z,22.47
2023-02-14T18:48:15.181Z,23.23
2023-02-14T18:50:44.497Z,23.93
2023-02-14T18:53:12.376Z,22.93
2023-02-14T18:55:40.281Z,21.90
2023-02-14T18:58:08.204Z,22.33
2023-02-14T19:00:36.190Z,22.57
2023-02-14T19:03:04.175Z,21.57
2023-02-14T19:05:32.078Z,21.57
2023-02-14T19:08:01.352Z,21.30
2023-02-14T19:10:29.307Z,23.13
2023-02-14T19:12:57.223Z,22.97
2023-02-14T19:15:25.132Z,20.93
2023-02-14T19:17:54.184Z,20.97
2023-02-14T19:20:22.302Z,21.57
2023-02-14T19:22:50.595Z,21.47
2023-02-14T19:25:20.053Z,20.60
2023-02-14T19:27:49.399Z,21.27
2023-02-14T19:30:17.825Z,20.50
2023-02-14T19:32:45.878Z,20.63
2023-02-14T19:35:13.771Z,21.47
2023-02-14T19:37:41.708Z,20.97
2023-02-14T19:40:10.762Z,20.27
2023-02-14T19:42:39.980Z,21.47
2023-02-14T19:45:08.517Z,21.00
2023-02-14T19:47:46.678Z,20.90
2023-02-14T19:50:15.127Z,20.80
2023-02-14T19:52:43.843Z,20.50
2023-02-14T19:55:21.096Z,20.20
2023-02-14T19:57:50.457Z,19.93
2023-02-14T20:00:20.926Z,20.43
2023-02-14T20:02:49.102Z,21.37
2023-02-14T20:05:17.541Z,20.07
2023-02-14T20:07:49.067Z,19.37
2023-02-14T20:10:17.686Z,19.47
2023-02-14T20:12:45.595Z,19.30
2023-02-14T20:15:15.318Z,20.40
2023-02-14T20:17:43.251Z,20.00
2023-02-14T20:20:13.678Z,21.33
2023-02-14T20:22:41.735Z,20.67
2023-02-14T20:25:11.217Z,20.10
2023-02-14T20:27:39.508Z,20.80
2023-02-14T20:30:08.963Z,20.93
2023-02-14T20:32:38.307Z,21.47
2023-02-14T20:35:07.383Z,21.73
2023-02-14T20:37:35.554Z,21.37
2023-02-14T20:40:03.683Z,20.07
2023-02-14T20:42:31.724Z,19.30
2023-02-14T20:44:59.604Z,18.70
2023-02-14T20:47:28.608Z,19.03
2023-02-14T20:49:57.916Z,20.10
2023-02-14T20:52:26.924Z,20.00
2023-02-14T20:54:54.915Z,18.37
2023-02-14T20:57:23.488Z,19.40
2023-02-14T20:59:51.348Z,20.23
2023-02-14T21:02:19.219Z,19.07
2023-02-14T21:04:47.156Z,19.37
2023-02-14T21:07:16.473Z,17.70
2023-02-14T21:09:44.394Z,19.27
2023-02-14T21:12:12.516Z,19.27
2023-02-14T21:14:40.408Z,18.80
2023-02-14T21:17:08.381Z,19.30
2023-02-14T21:19:36.224Z,18.03
2023-02-14T21:22:04.325Z,18.70
2023-02-14T21:24:33.591Z,19.07
2023-02-14T21:27:02.476Z,18.00
2023-02-14T21:29:30.420Z,17.67
2023-02-14T21:31:58.411Z,18.40
2023-02-14T21:34:27.774Z,18.67
2023-02-14T21:36:56.372Z,17.73
2023-02-14T21:39:27.496Z,19.10
2023-02-14T21:41:56.833Z,17.70
2023-02-14T21:44:38.798Z,17.73
2023-02-14T21:47:06.691Z,18.13
2023-02-14T21:49:52.256Z,18.17
2023-02-14T21:52:20.140Z,17.90
2023-02-14T21:54:48.391Z,17.13
2023-02-14T21:57:17.711Z,18.27
2023-02-14T21:59:45.625Z,17.40
2023-02-14T22:02:13.767Z,18.80
2023-02-14T22:04:43.218Z,18.37
2023-02-14T22:07:11.257Z,17.80
2023-02-14T22:09:39.243Z,16.90
2023-02-14T22:12:07.966Z,17.33
2023-02-14T22:14:37.309Z,17.10
2023-02-14T22:17:05.336Z,17.63
2023-02-14T22:19:33.281Z,17.87
2023-02-14T22:22:01.254Z,17.80
2023-02-14T22:24:29.359Z,17.30
2023-02-14T22:26:57.328Z,18.27
2023-02-14T22:29:25.259Z,19.10
2023-02-14T22:31:54.697Z,17.90
2023-02-14T22:34:22.647Z,17.90
2023-02-14T22:36:51.212Z,18.37
2023-02-14T22:39:19.200Z,17.80
2023-02-14T22:41:47.627Z,16.80
2023-02-14T22:44:15.886Z,16.67
2023-02-14T22:46:43.911Z,16.73
2023-02-14T22:49:13.244Z,16.30
2023-02-14T22:51:42.793Z,16.47
2023-02-14T22:54:13.477Z,16.50
2023-02-14T22:56:43.636Z,17.10
2023-02-14T22:59:16.227Z,17.87
2023-02-14T23:01:44.301Z,18.13
2023-02-14T23:04:14.006Z,18.20
2023-02-14T23:06:41.924Z,17.87
2023-02-14T23:09:11.986Z,17.23
2023-02-14T23:11:41.230Z,17.27
2023-02-14T23:14:26.745Z,17.00
2023-02-14T23:17:20.368Z,16.80
2023-02-14T23:20:06.999Z,17.30
2023-02-14T23:22:36.969Z,16.33
2023-02-14T23:25:08.267Z,16.87
2023-02-14T23:27:37.997Z,17.07
2023-02-14T23:30:06.693Z,17.00
2023-02-14T23:32:34.724Z,16.17
2023-02-14T23:35:04.052Z,16.97
2023-02-14T23:37:31.951Z,17.03
2023-02-14T23:39:59.818Z,17.10
2023-02-14T23:42:28.273Z,16.27
2023-02-14T23:45:16.213Z,17.27
2023-02-14T23:47:44.147Z,16.73
2023-02-14T23:50:13.569Z,16.87
2023-02-14T23:52:41.693Z,16.47
2023-02-14T23:55:10.114Z,17.03
2023-02-14T23:57:38.467Z,16.80
